createdAt,value
2023-04-15T00:01:04.220Z,2.97
2023-04-15T00:03:30.896Z,3.24
2023-04-15T00:05:58.587Z,2.97
2023-04-15T00:08:25.660Z,2.58
2023-04-15T00:10:52.919Z,2.60
2023-04-15T00:13:20.333Z,3.06
2023-04-15T00:15:47.488Z,3.15
2023-04-15T00:18:14.597Z,3.12
2023-04-15T00:20:41.676Z,3.11
2023-04-15T00:23:54.774Z,3.04
2023-04-15T00:26:21.466Z,3.00
2023-04-15T00:28:49.606Z,1.96
2023-04-15T00:31:16.488Z,2.05
2023-04-15T00:34:10.174Z,3.11
2023-04-15T00:36:36.854Z,3.05
2023-04-15T00:39:16.471Z,2.51
2023-04-15T00:41:43.671Z,2.80
2023-04-15T00:44:10.776Z,2.68
2023-04-15T00:46:54.412Z,2.54
2023-04-15T00:49:21.433Z,2.55
2023-04-15T00:51:48.208Z,2.67
2023-04-15T00:54:41.753Z,2.74
2023-04-15T00:57:08.993Z,1.86
2023-04-15T00:59:36.168Z,1.62
2023-04-15T01:02:03.039Z,1.74
2023-04-15T01:04:30.827Z,2.09
2023-04-15T01:06:58.055Z,1.94
2023-04-15T01:09:27.542Z,1.85
2023-04-15T01:16:26.803Z,2.10
2023-04-15T01:18:53.670Z,1.97
2023-04-15T01:22:05.701Z,2.28
2023-04-15T01:24:34.102Z,2.30
2023-04-15T01:27:00.842Z,1.79
2023-04-15T01:29:28.128Z,2.33
2023-04-15T01:31:56.495Z,2.11
2023-04-15T01:38:15.009Z,2.06
2023-04-15T01:40:41.572Z,1.50
2023-04-15T01:43:35.158Z,2.31
2023-04-15T01:46:02.385Z,1.91
2023-04-15T01:48:29.188Z,1.29
2023-04-15T01:51:33.026Z,2.27
2023-04-15T01:53:59.773Z,1.28
2023-04-15T01:56:26.743Z,1.71
2023-04-15T01:58:53.833Z,1.97
2023-04-15T02:01:32.086Z,1.71
2023-04-15T02:03:59.858Z,1.72
2023-04-15T02:06:28.343Z,0.19
2023-04-15T02:08:55.514Z,1.53
2023-04-15T02:11:23.223Z,1.56
2023-04-15T02:13:49.962Z,1.93
2023-04-15T02:16:19.658Z,1.09
2023-04-15T02:18:47.107Z,1.76
2023-04-15T02:21:48.072Z,1.55
2023-04-15T02:24:17.986Z,0.81
2023-04-15T02:26:44.655Z,1.09
2023-04-15T02:29:11.434Z,1.31
2023-04-15T02:31:40.790Z,0.99
2023-04-15T02:34:08.260Z,0.85
2023-04-15T02:36:57.384Z,1.47
2023-04-15T02:39:24.465Z,1.07
2023-04-15T02:41:53.875Z,0.43
2023-04-15T02:44:22.029Z,0.86
2023-04-15T02:47:02.413Z,1.34
2023-04-15T02:49:31.056Z,1.25
2023-04-15T02:51:58.349Z,0.03
2023-04-15T02:54:26.125Z,-0.05
2023-04-15T02:56:55.367Z,0.56
2023-04-15T02:59:22.611Z,1.07
2023-04-15T03:01:49.416Z,0.71
2023-04-15T03:04:16.407Z,1.29
2023-04-15T03:06:43.208Z,1.07
2023-04-15T03:09:10.400Z,0.49
2023-04-15T03:11:40.854Z,0.57
2023-04-15T03:14:09.491Z,0.97
2023-04-15T03:16:42.409Z,1.29
2023-04-15T03:19:09.128Z,0.94
2023-04-15T03:21:35.996Z,1.14
2023-04-15T03:24:02.738Z,0.19
2023-04-15T03:27:26.045Z,0.98
2023-04-15T03:29:56.877Z,0.37
2023-04-15T03:32:25.928Z,-1.02
2023-04-15T03:34:52.782Z,0.63
2023-04-15T03:37:19.596Z,0.14
2023-04-15T03:40:21.735Z,0.76
2023-04-15T03:42:48.444Z,0.82
2023-04-15T03:45:21.497Z,-0.40
2023-04-15T03:47:49.797Z,0.77
2023-04-15T03:50:16.922Z,0.65
2023-04-15T03:52:44.971Z,-0.30
2023-04-15T03:55:11.545Z,0.17
2023-04-15T03:57:59.869Z,0.44
2023-04-15T04:00:26.440Z,-0.60
2023-04-15T04:02:53.527Z,-0.59
2023-04-15T04:05:20.355Z,-0.26
2023-04-15T04:07:47.384Z,-1.40
2023-04-15T04:10:14.343Z,-0.38
2023-04-15T04:12:40.923Z,0.32
2023-04-15T04:15:08.480Z,-0.72
2023-04-15T04:17:36.011Z,0.44
2023-04-15T04:20:02.803Z,0.18
2023-04-15T04:22:29.503Z,0.53
2023-04-15T04:25:43.745Z,0.67
2023-04-15T04:28:11.668Z,-0.44
2023-04-15T04:30:38.466Z,-0.07
2023-04-15T04:33:51.019Z,0.35
2023-04-15T04:36:17.801Z,0.24
2023-04-15T04:39:07.985Z,0.49
2023-04-15T04:41:34.536Z,0.07
2023-04-15T04:44:01.225Z,0.43
2023-04-15T04:46:28.019Z,0.52
2023-04-15T04:48:54.803Z,-0.83
2023-04-15T04:51:21.733Z,-0.60
2023-04-15T04:54:04.415Z,-1.36
2023-04-15T04:56:31.228Z,-0.21
2023-04-15T04:59:00.117Z,-0.53
2023-04-15T05:01:27.687Z,-1.10
2023-04-15T05:03:55.212Z,-0.02
2023-04-15T05:06:22.338Z,-1.53
2023-04-15T05:08:51.490Z,-2.49
2023-04-15T05:11:18.184Z,-0.99
2023-04-15T05:13:44.882Z,-0.02
2023-04-15T05:16:11.778Z,-0.34
2023-04-15T05:18:38.435Z,0.02
2023-04-15T05:21:14.876Z,1.21
2023-04-15T05:23:41.835Z,0.40
2023-04-15T05:26:08.659Z,1.72
2023-04-15T05:28:35.427Z,0.75
2023-04-15T05:31:22.465Z,2.17
2023-04-15T05:33:49.402Z,0.91
2023-04-15T05:36:29.903Z,2.40
2023-04-15T05:38:56.747Z,2.76
2023-04-15T05:41:33.036Z,3.20
2023-04-15T05:44:02.100Z,2.94
2023-04-15T05:47:23.524Z,4.39
2023-04-15T05:49:53.574Z,3.48
2023-04-15T05:52:22.957Z,3.97
2023-04-15T05:54:49.743Z,5.44
2023-04-15T05:57:16.827Z,6.81
2023-04-15T05:59:49.550Z,6.00
2023-04-15T06:02:43.698Z,7.60
2023-04-15T06:05:11.976Z,7.18
2023-04-15T06:07:38.954Z,8.28
2023-04-15T06:10:06.692Z,6.98
2023-04-15T06:12:36.517Z,7.83
2023-04-15T06:15:04.070Z,7.33
2023-04-15T06:18:06.245Z,8.84
2023-04-15T06:20:36.913Z,8.66
2023-04-15T06:23:08.972Z,8.16
2023-04-15T06:25:35.865Z,9.10
2023-04-15T06:28:02.649Z,9.08
2023-04-15T06:30:45.336Z,8.58
2023-04-15T06:33:12.696Z,8.27
2023-04-15T06:35:41.893Z,7.80
2023-04-15T06:38:22.095Z,7.27
2023-04-15T06:40:48.780Z,6.95
2023-04-15T06:43:16.616Z,7.02
2023-04-15T06:45:46.204Z,7.81
2023-04-15T06:48:13.293Z,7.29
2023-04-15T06:54:39.801Z,8.64
2023-04-15T06:57:08.002Z,9.62
2023-04-15T06:59:34.777Z,9.58
2023-04-15T07:02:01.823Z,9.59
2023-04-15T07:04:28.860Z,9.96
2023-04-15T07:06:55.811Z,10.26
2023-04-15T07:09:23.913Z,10.03
2023-04-15T07:11:51.625Z,9.80
2023-04-15T07:14:18.588Z,12.13
2023-04-15T07:17:00.863Z,12.15
2023-04-15T07:19:27.840Z,12.04
2023-04-15T07:21:54.556Z,13.05
2023-04-15T07:24:36.682Z,12.60
2023-04-15T07:27:04.241Z,12.20
2023-04-15T07:29:31.613Z,13.59
2023-04-15T07:32:24.543Z,14.11
2023-04-15T07:34:51.190Z,13.94
2023-04-15T07:37:19.151Z,13.66
2023-04-15T07:40:12.116Z,14.62
2023-04-15T07:42:41.168Z,14.87
2023-04-15T07:45:09.492Z,13.59
2023-04-15T07:47:36.778Z,14.91
2023-04-15T07:50:03.879Z,14.54
2023-04-15T07:52:30.781Z,13.79
2023-04-15T07:55:23.594Z,15.00
2023-04-15T07:57:50.606Z,11.99
2023-04-15T08:00:24.792Z,14.65
2023-04-15T08:02:54.778Z,14.45
2023-04-15T08:05:22.159Z,12.95
2023-04-15T08:07:48.974Z,13.70
2023-04-15T08:10:15.857Z,13.97
2023-04-15T08:12:43.116Z,13.53
2023-04-15T08:15:10.281Z,13.74
2023-04-15T08:17:42.373Z,14.26
2023-04-15T08:20:09.789Z,13.86
2023-04-15T08:23:19.983Z,15.43
2023-04-15T08:25:47.040Z,15.68
2023-04-15T08:28:13.934Z,15.61
2023-04-15T08:30:41.021Z,14.27
2023-04-15T08:33:07.959Z,16.12
2023-04-15T08:35:34.748Z,15.33
2023-04-15T08:38:01.557Z,14.13
2023-04-15T08:40:38.746Z,13.80
2023-04-15T08:43:08.206Z,12.87
2023-04-15T08:45:44.999Z,13.66
2023-04-15T08:48:16.992Z,13.22
2023-04-15T08:51:16.347Z,12.74
2023-04-15T08:53:46.638Z,12.28
2023-04-15T08:56:16.021Z,13.01
2023-04-15T08:58:45.058Z,12.21
2023-04-15T09:01:21.945Z,12.48
2023-04-15T09:03:54.697Z,11.45
2023-04-15T09:06:30.116Z,12.53
2023-04-15T09:08:57.776Z,13.00
2023-04-15T09:11:26.118Z,10.82
2023-04-15T09:13:53.044Z,11.31
2023-04-15T09:16:32.795Z,12.58
2023-04-15T09:18:59.697Z,13.11
2023-04-15T09:21:32.325Z,13.20
2023-04-15T09:24:01.656Z,11.76
2023-04-15T09:27:01.821Z,11.35
2023-04-15T09:29:31.730Z,10.19
2023-04-15T09:32:10.819Z,10.51
2023-04-15T09:34:38.149Z,8.96
2023-04-15T09:37:05.124Z,8.09
2023-04-15T09:39:52.625Z,9.23
2023-04-15T09:42:27.017Z,9.47
2023-04-15T09:44:54.183Z,10.04
2023-04-15T09:51:06.810Z,10.30
2023-04-15T09:53:36.345Z,9.88
2023-04-15T09:57:00.631Z,10.72
2023-04-15T09:59:27.202Z,10.23
2023-04-15T10:01:56.526Z,10.23
2023-04-15T10:04:24.213Z,10.23
2023-04-15T10:06:51.433Z,8.98
2023-04-15T10:09:22.400Z,10.71
2023-04-15T10:11:50.424Z,9.99
2023-04-15T10:14:19.449Z,8.24
2023-04-15T10:16:49.209Z,9.97
2023-04-15T10:19:37.268Z,10.91
2023-04-15T10:22:04.467Z,9.84
2023-04-15T10:24:34.623Z,10.41
2023-04-15T10:27:07.219Z,10.25
2023-04-15T10:29:34.697Z,7.87
2023-04-15T10:32:11.672Z,9.82
2023-04-15T10:34:38.977Z,9.39
2023-04-15T10:37:09.532Z,10.61
2023-04-15T10:39:42.258Z,10.48
2023-04-15T10:42:22.769Z,10.46
2023-04-15T10:44:54.069Z,11.92
2023-04-15T10:47:22.285Z,9.56
2023-04-15T10:50:01.312Z,10.93
2023-04-15T10:52:29.304Z,10.61
2023-04-15T10:55:11.215Z,10.94
2023-04-15T10:57:39.878Z,10.84
2023-04-15T11:00:22.463Z,11.17
2023-04-15T11:02:53.412Z,10.37
2023-04-15T11:05:22.654Z,10.16
2023-04-15T11:08:04.701Z,11.50
2023-04-15T11:10:31.520Z,11.66
2023-04-15T11:13:06.551Z,10.37
2023-04-15T11:15:34.491Z,11.11
2023-04-15T11:18:19.563Z,11.75
2023-04-15T11:20:59.374Z,11.63
2023-04-15T11:23:34.439Z,10.00
2023-04-15T11:26:05.611Z,8.63
2023-04-15T11:28:33.964Z,9.45
2023-04-15T11:31:12.216Z,9.02
2023-04-15T11:34:03.948Z,9.45
2023-04-15T11:36:34.713Z,10.20
2023-04-15T11:43:50.158Z,11.88
2023-04-15T11:46:17.187Z,12.01
2023-04-15T11:48:48.839Z,11.94
2023-04-15T11:51:16.277Z,10.86
2023-04-15T11:53:52.459Z,9.31
2023-04-15T11:56:24.577Z,10.96
2023-04-15T11:59:10.730Z,11.42
2023-04-15T12:01:49.013Z,11.76
2023-04-15T12:04:23.219Z,11.61
2023-04-15T12:07:17.096Z,11.72
2023-04-15T12:09:45.890Z,11.69
2023-04-15T12:12:14.205Z,9.78
2023-04-15T12:14:44.705Z,10.55
2023-04-15T12:17:13.355Z,10.28
2023-04-15T12:19:54.381Z,11.97
2023-04-15T12:23:09.106Z,11.72
2023-04-15T12:25:36.375Z,10.67
2023-04-15T12:28:23.479Z,12.16
2023-04-15T12:30:54.232Z,11.75
2023-04-15T12:33:23.138Z,10.86
2023-04-15T12:35:49.929Z,10.34
2023-04-15T12:38:20.262Z,10.79
2023-04-15T12:40:47.520Z,9.31
2023-04-15T12:43:14.309Z,10.86
2023-04-15T12:45:41.473Z,11.38
2023-04-15T12:48:09.421Z,10.95
2023-04-15T12:50:52.664Z,11.89
2023-04-15T12:53:20.662Z,10.47
2023-04-15T12:55:49.886Z,10.90
2023-04-15T12:58:40.010Z,9.85
2023-04-15T13:01:07.002Z,9.76
2023-04-15T13:03:34.101Z,10.36
2023-04-15T13:06:02.391Z,10.12
2023-04-15T13:08:29.276Z,9.71
2023-04-15T13:11:52.978Z,11.67
2023-04-15T13:14:27.371Z,11.95
2023-04-15T13:16:54.445Z,10.29
2023-04-15T13:19:52.195Z,12.03
2023-04-15T13:22:20.520Z,9.04
2023-04-15T13:25:40.266Z,11.23
2023-04-15T13:28:06.976Z,11.10
2023-04-15T13:30:33.941Z,10.72
2023-04-15T13:33:37.130Z,11.21
2023-04-15T13:36:04.321Z,10.76
2023-04-15T13:38:33.488Z,10.84
2023-04-15T13:41:00.290Z,10.93
2023-04-15T13:43:27.175Z,11.01
2023-04-15T13:45:54.197Z,9.91
2023-04-15T13:48:21.274Z,11.04
2023-04-15T13:50:48.092Z,10.57
2023-04-15T13:53:47.084Z,10.76
2023-04-15T13:56:17.029Z,9.34
2023-04-15T13:58:44.078Z,8.64
2023-04-15T14:01:11.108Z,10.11
2023-04-15T14:03:49.283Z,9.95
2023-04-15T14:06:16.340Z,9.38
2023-04-15T14:08:43.753Z,9.37
2023-04-15T14:11:16.697Z,10.62
2023-04-15T14:13:46.953Z,9.90
2023-04-15T14:16:13.778Z,10.35
2023-04-15T14:18:44.815Z,10.45
2023-04-15T14:21:11.926Z,9.53
2023-04-15T14:23:38.970Z,11.27
2023-04-15T14:26:20.590Z,10.08
2023-04-15T14:28:48.562Z,9.42
2023-04-15T14:31:15.553Z,10.09
2023-04-15T14:33:42.787Z,9.15
2023-04-15T14:36:10.266Z,9.84
2023-04-15T14:38:41.195Z,10.11
2023-04-15T14:45:10.720Z,9.70
2023-04-15T14:47:37.684Z,10.44
2023-04-15T14:50:04.943Z,9.38
2023-04-15T14:52:38.958Z,9.04
2023-04-15T14:55:13.240Z,7.95
2023-04-15T14:57:41.574Z,9.14
2023-04-15T15:00:10.793Z,9.15
2023-04-15T15:03:01.997Z,10.42
2023-04-15T15:05:29.232Z,7.91
2023-04-15T15:07:58.865Z,10.52
2023-04-15T15:11:03.483Z,10.58
2023-04-15T15:13:30.626Z,8.90
2023-04-15T15:15:58.436Z,10.55
2023-04-15T15:18:28.056Z,9.31
2023-04-15T15:20:54.977Z,9.34
2023-04-15T15:23:24.484Z,9.40
2023-04-15T15:25:59.877Z,9.79
2023-04-15T15:29:04.403Z,9.53
2023-04-15T15:31:36.638Z,8.94
2023-04-15T15:34:04.254Z,8.63
2023-04-15T15:36:34.117Z,7.92
2023-04-15T15:39:01.014Z,8.01
2023-04-15T15:41:27.992Z,8.86
2023-04-15T15:43:58.110Z,9.75
2023-04-15T15:46:28.138Z,9.48
2023-04-15T15:48:55.457Z,8.97
2023-04-15T15:51:26.883Z,8.16
2023-04-15T15:53:54.807Z,8.24
2023-04-15T15:56:21.782Z,8.66
2023-04-15T15:58:48.583Z,8.56
2023-04-15T16:01:15.530Z,9.23
2023-04-15T16:04:15.789Z,8.80
2023-04-15T16:06:48.400Z,8.44
2023-04-15T16:09:19.982Z,8.14
2023-04-15T16:11:46.844Z,7.44
2023-04-15T16:14:14.333Z,6.54
2023-04-15T16:16:41.419Z,6.40
2023-04-15T16:20:01.235Z,8.13
2023-04-15T16:22:39.335Z,8.07
2023-04-15T16:25:06.481Z,6.84
2023-04-15T16:27:33.833Z,7.41
2023-04-15T16:30:42.661Z,8.13
2023-04-15T16:33:51.727Z,8.00
2023-04-15T16:36:18.749Z,6.41
2023-04-15T16:38:48.535Z,8.28
2023-04-15T16:41:16.079Z,5.31
2023-04-15T16:43:53.121Z,7.89
2023-04-15T16:46:19.803Z,6.57
2023-04-15T16:48:49.084Z,6.24
2023-04-15T16:51:15.865Z,6.85
2023-04-15T16:53:51.006Z,7.92
2023-04-15T16:56:17.867Z,7.87
2023-04-15T16:58:47.255Z,6.46
2023-04-15T17:01:14.297Z,6.76
2023-04-15T17:06:24.459Z,7.49
2023-04-15T17:08:51.792Z,6.68
2023-04-15T17:11:19.448Z,8.46
2023-04-15T17:13:49.213Z,8.50
2023-04-15T17:16:18.066Z,7.26
2023-04-15T17:18:47.573Z,6.46
2023-04-15T17:21:15.498Z,7.24
2023-04-15T17:23:42.440Z,7.74
2023-04-15T17:26:09.185Z,7.78
2023-04-15T17:28:36.300Z,7.48
2023-04-15T17:31:04.764Z,6.74
2023-04-15T17:34:00.722Z,7.26
2023-04-15T17:36:18.578Z,7.85
2023-04-15T17:38:46.046Z,6.98
2023-04-15T17:41:12.982Z,6.18
2023-04-15T17:43:39.941Z,6.74
2023-04-15T17:46:07.894Z,6.96
2023-04-15T17:48:34.979Z,6.84
2023-04-15T17:51:01.745Z,7.68
2023-04-15T17:53:28.712Z,7.70
2023-04-15T17:56:01.624Z,7.46
2023-04-15T17:58:28.568Z,6.43
2023-04-15T18:00:55.481Z,6.88
2023-04-15T18:03:22.321Z,5.48
2023-04-15T18:05:49.083Z,7.35
2023-04-15T18:08:32.316Z,6.79
2023-04-15T18:10:59.202Z,6.03
2023-04-15T18:13:26.145Z,6.39
2023-04-15T18:15:53.159Z,5.80
2023-04-15T18:18:20.044Z,5.29
2023-04-15T18:20:46.909Z,6.82
2023-04-15T18:23:17.032Z,6.61
2023-04-15T18:25:43.992Z,4.95
2023-04-15T18:28:35.918Z,7.08
2023-04-15T18:31:03.523Z,6.17
2023-04-15T18:33:30.290Z,7.46
2023-04-15T18:36:13.503Z,7.59
2023-04-15T18:38:40.174Z,5.83
2023-04-15T18:45:07.027Z,7.67
2023-04-15T18:47:33.955Z,6.25
2023-04-15T18:50:00.891Z,8.01
2023-04-15T18:52:27.836Z,7.91
2023-04-15T18:55:20.117Z,7.98
2023-04-15T18:57:48.604Z,8.05
2023-04-15T19:00:16.260Z,6.22
2023-04-15T19:02:44.041Z,7.10
2023-04-15T19:05:11.029Z,7.55
2023-04-15T19:07:37.893Z,8.04
2023-04-15T19:10:06.101Z,7.51
2023-04-15T19:12:43.574Z,7.44
2023-04-15T19:15:10.625Z,7.97
2023-04-15T19:17:37.496Z,6.29
2023-04-15T19:20:04.386Z,7.03
2023-04-15T19:22:31.331Z,8.05
2023-04-15T19:24:58.029Z,8.07
2023-04-15T19:27:24.913Z,7.25
2023-04-15T19:29:55.125Z,8.12
2023-04-15T19:32:22.648Z,7.21
2023-04-15T19:34:52.475Z,6.48
2023-04-15T19:37:19.375Z,6.98
2023-04-15T19:39:46.388Z,7.18
2023-04-15T19:42:13.320Z,5.48
2023-04-15T19:44:43.228Z,8.08
2023-04-15T19:47:10.989Z,7.85
2023-04-15T19:49:38.161Z,6.60
2023-04-15T19:52:05.222Z,7.92
2023-04-15T19:54:57.210Z,7.95
2023-04-15T19:57:24.178Z,7.99
2023-04-15T19:59:51.226Z,6.49
2023-04-15T20:02:18.319Z,8.03
2023-04-15T20:04:45.300Z,7.51
2023-04-15T20:07:11.980Z,6.28
2023-04-15T20:09:38.877Z,6.22
2023-04-15T20:12:49.638Z,7.65
2023-04-15T20:15:00.575Z,7.61
2023-04-15T20:17:27.541Z,8.00
2023-04-15T20:19:55.322Z,5.45
2023-04-15T20:22:22.020Z,6.84
2023-04-15T20:24:48.997Z,7.13
2023-04-15T20:27:15.759Z,7.28
2023-04-15T20:29:42.587Z,6.64
2023-04-15T20:32:11.765Z,6.28
2023-04-15T20:38:38.605Z,7.64
2023-04-15T20:41:05.647Z,7.87
2023-04-15T20:47:32.850Z,7.68
2023-04-15T20:49:59.760Z,6.43
2023-04-15T20:52:26.365Z,7.83
2023-04-15T20:54:54.338Z,7.81
2023-04-15T20:57:21.194Z,7.43
2023-04-15T20:59:48.017Z,5.64
2023-04-15T21:02:14.917Z,5.35
2023-04-15T21:05:11.155Z,7.89
2023-04-15T21:07:41.414Z,7.82
2023-04-15T21:10:08.503Z,6.25
2023-04-15T21:12:41.854Z,5.09
2023-04-15T21:15:09.478Z,7.56
2023-04-15T21:17:36.384Z,4.68
2023-04-15T21:20:03.856Z,7.85
2023-04-15T21:22:31.522Z,6.78
2023-04-15T21:24:58.302Z,6.97
2023-04-15T21:27:26.245Z,6.61
2023-04-15T21:33:53.275Z,7.74
2023-04-15T21:36:20.031Z,6.86
2023-04-15T21:42:47.998Z,7.47
2023-04-15T21:45:15.584Z,7.26
2023-04-15T21:48:04.217Z,5.08
2023-04-15T21:50:29.652Z,7.82
2023-04-15T21:52:56.492Z,7.56
2023-04-15T21:55:23.356Z,6.49
2023-04-15T21:57:50.250Z,7.04
2023-04-15T22:04:07.711Z,7.45
2023-04-15T22:06:34.662Z,5.85
2023-04-15T22:09:01.898Z,6.58
2023-04-15T22:11:31.133Z,4.42
2023-04-15T22:17:51.542Z,6.78
2023-04-15T22:20:18.693Z,7.63
2023-04-15T22:22:45.381Z,6.77
2023-04-15T22:25:12.695Z,7.67
2023-04-15T22:27:39.459Z,7.14
2023-04-15T22:30:07.287Z,7.59
2023-04-15T22:32:36.984Z,7.69
2023-04-15T22:35:04.108Z,6.57
2023-04-15T22:37:57.000Z,7.73
2023-04-15T22:40:23.880Z,7.20
2023-04-15T22:43:31.426Z,7.68
2023-04-15T22:45:58.479Z,6.88
2023-04-15T22:48:25.232Z,6.48
2023-04-15T22:50:51.981Z,7.57
2023-04-15T22:53:18.941Z,7.50
2023-04-15T22:55:47.776Z,7.20
2023-04-15T22:58:15.925Z,4.83
2023-04-15T23:00:45.022Z,5.56
2023-04-15T23:03:12.245Z,6.29
2023-04-15T23:05:41.326Z,7.37
2023-04-15T23:08:55.304Z,7.41
2023-04-15T23:11:22.109Z,7.00
2023-04-15T23:13:50.563Z,6.74
2023-04-15T23:16:17.202Z,5.16
2023-04-15T23:19:01.500Z,7.44
2023-04-15T23:21:29.150Z,7.09
2023-04-15T23:23:56.004Z,7.57
2023-04-15T23:26:22.633Z,7.62
2023-04-15T23:28:49.258Z,7.67
2023-04-15T23:31:31.415Z,7.71
2023-04-15T23:33:58.113Z,7.22
2023-04-15T23:36:25.146Z,7.10
2023-04-15T23:38:51.907Z,6.29
2023-04-15T23:41:18.733Z,7.18
2023-04-15T23:43:45.922Z,7.22
2023-04-15T23:46:12.905Z,6.89
2023-04-15T23:48:50.720Z,7.40
2023-04-15T23:51:17.848Z,6.54
2023-04-15T23:53:44.761Z,7.44
2023-04-15T23:56:11.623Z,6.48
2023-04-15T23:58:38.329Z,5.11
